Terminal Aerodrome Forecast
Issued by NWS

Home | Current Version | Previous Version | Text Only | Print | Product List | Glossary On
Versions: 1 2 3 4 5 6 7 8 9 10 11 12 13 14 15 16 17 18
000
FTUS46 KSEW 030500
TAFCLM
TAF
KCLM 030524Z 0306/0406 28008KT P6SM BKN040 BKN080
     FM031000 28006KT P6SM SCT040
      TEMPO 0312/0314 P6SM BKN015
     FM031500 VRB04KT P6SM SCT040=

USA.gov is the U.S. government's official web portal to all federal, state and local government web resources and services.